Time;durP1;ratioP1;P1;durP2;ratioP2;P2;SDS_P1;SDS_P2;PMS_P1;PMS_P2;Temp;Humidity;BMP_temperature;BMP_pressure;BME280_temperature;BME280_humidity;BME280_pressure;Samples;Min_cycle;Max_cycle;Signal;HPM_P1;HPM_P2
2022/02/20 00:00:44;;;;;;;1.52;1.42;;;4.00;99.90;;;;;;5016290;28;20073;-86
2022/02/20 00:03:10;;;;;;;2.28;2.17;;;3.10;99.90;;;;;;5017983;28;20045;-81
2022/02/20 00:05:36;;;;;;;2.30;2.10;;;3.00;99.90;;;;;;5034310;28;20052;-84
2022/02/20 00:08:02;;;;;;;;;;;2.90;99.90;;;;;;4998668;28;20049;-86
2022/02/20 00:10:28;;;;;;;1.45;1.35;;;2.80;99.90;;;;;;5004021;28;20393;-84
2022/02/20 00:12:54;;;;;;;2.55;2.35;;;3.90;99.90;;;;;;5016619;28;20069;-84
2022/02/20 00:15:20;;;;;;;1.85;1.75;;;2.80;99.90;;;;;;5016641;28;20680;-86
2022/02/20 00:17:50;;;;;;;1.75;1.65;;;2.60;99.90;;;;;;5011113;28;20041;-82
2022/02/20 00:20:16;;;;;;;2.05;1.90;;;2.50;99.90;;;;;;5018834;28;20057;-85
2022/02/20 00:22:43;;;;;;;1.60;1.50;;;2.50;99.90;;;;;;5047916;28;20041;-86
2022/02/20 00:25:09;;;;;;;2.00;1.85;;;2.40;99.90;;;;;;5019540;28;20049;-88
2022/02/20 00:27:35;;;;;;;2.58;2.38;;;2.40;99.90;;;;;;5017617;28;20163;-86
2022/02/20 00:30:07;;;;;;;2.45;2.28;;;3.50;99.90;;;;;;5017150;28;20056;-86
2022/02/20 00:32:33;;;;;;;2.45;1.55;;;2.50;99.90;;;;;;5016606;28;20120;-84
2022/02/20 00:34:58;;;;;;;1.55;1.45;;;2.50;99.90;;;;;;5032052;28;20037;-88
2022/02/20 00:37:24;;;;;;;6.60;3.03;;;2.50;99.90;;;;;;5015302;28;20708;-86
2022/02/20 00:39:50;;;;;;;1.88;1.77;;;3.10;99.90;;;;;;5036828;28;20049;-83
2022/02/20 00:42:16;;;;;;;1.20;1.13;;;2.50;99.90;;;;;;5023399;28;20139;-83
2022/02/20 00:44:41;;;;;;;1.92;1.70;;;2.60;99.90;;;;;;5022004;28;20041;-88
2022/02/20 00:47:07;;;;;;;2.28;2.10;;;2.60;99.90;;;;;;5024552;28;20755;-82
2022/02/20 00:49:33;;;;;;;1.60;1.50;;;3.30;99.90;;;;;;5022916;28;20041;-82
2022/02/20 00:51:58;;;;;;;1.55;1.45;;;2.70;99.90;;;;;;5017956;28;20359;-88
2022/02/20 00:54:24;;;;;;;0.82;0.82;;;2.70;99.90;;;;;;5015636;28;22155;-82
2022/02/20 00:56:50;;;;;;;1.85;1.75;;;2.80;99.90;;;;;;4997861;28;20076;-81
2022/02/20 00:59:16;;;;;;;1.48;1.38;;;2.70;99.90;;;;;;4998740;28;20390;-83
2022/02/20 01:01:41;;;;;;;2.17;1.77;;;2.70;99.90;;;;;;5016105;28;20096;-84
2022/02/20 01:04:08;;;;;;;1.83;1.67;;;4.30;99.90;;;;;;5015898;28;20526;-85
2022/02/20 01:06:34;;;;;;;1.73;1.63;;;3.90;99.90;;;;;;5032625;28;20069;-83
2022/02/20 01:09:00;;;;;;;;;;;4.60;99.90;;;;;;5015401;28;20037;-87
2022/02/20 01:11:26;;;;;;;3.90;2.40;;;3.00;99.90;;;;;;5032594;28;20295;-81
2022/02/20 01:13:52;;;;;;;;;;;3.00;99.90;;;;;;5037553;28;20518;-82
2022/02/20 01:16:18;;;;;;;1.77;1.67;;;3.50;99.90;;;;;;5015605;28;19917;-85
2022/02/20 01:18:44;;;;;;;2.50;2.38;;;2.90;99.90;;;;;;5014581;28;20041;-83
2022/02/20 01:21:10;;;;;;;;;;;4.20;99.90;;;;;;5010343;28;20376;-82
2022/02/20 01:23:35;;;;;;;1.73;1.63;;;3.00;99.90;;;;;;5032085;28;19928;-83
2022/02/20 01:26:01;;;;;;;2.15;2.00;;;4.30;99.90;;;;;;5015828;28;20090;-83
2022/02/20 01:28:28;;;;;;;1.83;1.73;;;3.00;99.90;;;;;;5016818;28;20629;-85
2022/02/20 01:30:54;;;;;;;2.03;1.88;;;3.40;99.90;;;;;;4997472;28;20045;-82
2022/02/20 01:33:20;;;;;;;3.08;2.22;;;3.90;99.90;;;;;;5016369;28;20037;-82
2022/02/20 01:35:46;;;;;;;5.32;3.25;;;3.00;99.90;;;;;;5015480;28;20522;-85
2022/02/20 01:38:15;;;;;;;;;;;3.10;99.90;;;;;;5033393;28;20062;-83
2022/02/20 01:40:43;;;;;;;1.52;1.42;;;3.10;99.90;;;;;;4999825;28;19979;-83
2022/02/20 01:43:10;;;;;;;2.53;2.33;;;3.10;99.90;;;;;;5017491;28;20529;-83
2022/02/20 01:45:38;;;;;;;1.70;1.60;;;3.10;99.90;;;;;;5039472;28;20073;-81
2022/02/20 01:48:04;;;;;;;2.10;1.90;;;3.10;99.90;;;;;;5017382;28;20041;-83
2022/02/20 01:50:30;;;;;;;2.53;2.33;;;3.10;99.90;;;;;;5033710;28;20044;-86
2022/02/20 01:52:56;;;;;;;2.25;2.05;;;4.40;99.90;;;;;;4998602;28;20098;-87
2022/02/20 01:55:22;;;;;;;3.13;2.55;;;3.20;99.90;;;;;;5014672;28;20116;-82
2022/02/20 01:57:48;;;;;;;1.73;1.63;;;3.20;99.90;;;;;;5022194;28;20068;-84
2022/02/20 02:00:17;;;;;;;1.60;1.50;;;3.30;99.90;;;;;;5015629;28;20033;-87
2022/02/20 02:02:44;;;;;;;2.35;1.80;;;3.30;99.90;;;;;;5014949;28;20076;-83
2022/02/20 02:05:10;;;;;;;2.30;2.08;;;4.10;99.90;;;;;;5015411;28;20049;-87
2022/02/20 02:07:36;;;;;;;5.20;2.78;;;3.70;99.90;;;;;;5020161;28;20053;-87
2022/02/20 02:10:04;;;;;;;4.40;3.13;;;3.30;99.90;;;;;;5024434;28;20368;-82
2022/02/20 02:12:31;;;;;;;4.85;3.13;;;3.30;99.90;;;;;;5035479;28;20490;-86
2022/02/20 02:15:02;;;;;;;2.25;2.05;;;3.30;99.90;;;;;;5014556;28;20407;-86
2022/02/20 02:17:28;;;;;;;3.92;2.33;;;3.20;99.90;;;;;;5015326;28;20063;-83
2022/02/20 02:19:54;;;;;;;;;;;3.10;99.90;;;;;;5032720;28;20045;-82
2022/02/20 02:22:21;;;;;;;2.70;2.30;;;3.10;99.90;;;;;;5039167;28;20258;-87
2022/02/20 02:24:48;;;;;;;3.53;2.75;;;3.40;99.90;;;;;;5050889;28;20114;-87
2022/02/20 02:27:14;;;;;;;2.83;2.22;;;2.90;99.90;;;;;;5015046;28;20132;-88
2022/02/20 02:29:42;;;;;;;3.50;2.65;;;4.40;99.90;;;;;;5026428;28;20033;-84
2022/02/20 02:32:09;;;;;;;2.88;2.58;;;2.70;99.90;;;;;;5032981;28;20045;-86
2022/02/20 02:34:35;;;;;;;3.88;3.17;;;2.60;99.90;;;;;;5043427;28;20044;-82
2022/02/20 02:37:02;;;;;;;3.20;2.78;;;2.50;99.90;;;;;;5013416;28;21688;-82
2022/02/20 02:39:27;;;;;;;3.47;2.88;;;2.50;99.90;;;;;;5030625;28;20110;-83
2022/02/20 02:41:53;;;;;;;3.20;2.38;;;2.50;99.90;;;;;;5030518;28;20429;-83
2022/02/20 02:44:19;;;;;;;2.88;2.28;;;2.50;99.90;;;;;;5018792;28;20041;-85
2022/02/20 02:46:45;;;;;;;6.75;3.40;;;2.40;99.90;;;;;;5013894;28;20046;-81
2022/02/20 02:49:10;;;;;;;4.72;3.53;;;2.40;99.90;;;;;;4997719;28;20045;-85
2022/02/20 02:51:37;;;;;;;3.63;2.75;;;2.50;99.90;;;;;;5014291;28;20488;-85
2022/02/20 02:54:10;;;;;;;4.47;4.05;;;2.50;99.90;;;;;;5018551;28;20072;-86
2022/02/20 02:56:37;;;;;;;3.88;3.28;;;2.50;99.90;;;;;;5015171;28;20054;-85
2022/02/20 02:59:04;;;;;;;3.13;2.72;;;3.40;99.90;;;;;;5017369;28;20041;-80
2022/02/20 03:01:29;;;;;;;4.20;2.60;;;2.40;99.90;;;;;;5041762;28;20038;-80
2022/02/20 03:03:56;;;;;;;2.95;2.70;;;2.40;99.90;;;;;;5032489;28;20091;-83
2022/02/20 03:06:23;;;;;;;5.35;3.17;;;2.40;99.90;;;;;;5030839;28;20041;-85
2022/02/20 03:08:49;;;;;;;3.53;3.22;;;2.40;99.90;;;;;;5034425;28;20558;-85
2022/02/20 03:11:15;;;;;;;;;;;2.60;99.90;;;;;;5042916;28;20037;-84
2022/02/20 03:13:41;;;;;;;3.90;2.95;;;2.40;99.90;;;;;;5003012;28;19952;-83
2022/02/20 03:16:07;;;;;;;4.28;3.67;;;2.40;99.90;;;;;;4998073;28;20037;-86
2022/02/20 03:18:33;;;;;;;3.90;2.85;;;2.40;99.90;;;;;;5010109;28;20049;-84
2022/02/20 03:21:00;;;;;;;4.43;3.35;;;2.40;99.90;;;;;;5023138;28;20438;-84
2022/02/20 03:23:26;;;;;;;3.80;3.05;;;2.40;99.90;;;;;;5016157;28;20041;-85
2022/02/20 03:25:51;;;;;;;4.38;3.45;;;2.80;99.90;;;;;;5017122;28;20045;-85
2022/02/20 03:28:18;;;;;;;4.18;2.80;;;3.10;99.90;;;;;;5014187;28;20491;-82
2022/02/20 03:30:43;;;;;;;4.53;3.42;;;2.70;99.90;;;;;;5021754;28;20045;-83
2022/02/20 03:33:10;;;;;;;5.40;4.00;;;3.00;99.90;;;;;;5017290;28;20151;-84
2022/02/20 03:35:36;;;;;;;3.83;3.05;;;2.20;99.90;;;;;;5033631;28;20053;-83
2022/02/20 03:38:02;;;;;;;4.53;3.13;;;2.30;99.90;;;;;;5016460;28;20066;-85
2022/02/20 03:40:28;;;;;;;5.13;3.47;;;2.30;99.90;;;;;;5039449;28;20060;-87
2022/02/20 03:42:53;;;;;;;5.30;3.70;;;2.40;99.90;;;;;;5020551;28;20055;-84
2022/02/20 03:45:19;;;;;;;4.88;3.47;;;2.40;99.90;;;;;;5023658;28;20425;-86
2022/02/20 03:47:45;;;;;;;5.25;3.75;;;2.40;99.90;;;;;;5038112;28;20491;-85
2022/02/20 03:50:12;;;;;;;5.40;2.97;;;2.40;99.90;;;;;;5023036;28;20517;-84
2022/02/20 03:52:38;;;;;;;5.53;3.83;;;2.50;99.90;;;;;;5039362;28;20167;-83
2022/02/20 03:55:05;;;;;;;;;;;3.30;99.90;;;;;;5033997;28;20045;-82
2022/02/20 03:57:32;;;;;;;4.15;3.08;;;2.50;99.90;;;;;;5018470;28;19966;-85
2022/02/20 04:00:03;;;;;;;5.57;3.60;;;2.60;99.90;;;;;;5021130;28;20550;-86
2022/02/20 04:02:30;;;;;;;3.53;2.47;;;2.60;99.90;;;;;;5028604;28;20126;-84
2022/02/20 04:04:57;;;;;;;6.75;3.95;;;3.10;99.90;;;;;;4984042;28;20045;-84
2022/02/20 04:07:23;;;;;;;3.10;2.55;;;2.70;99.90;;;;;;5037761;28;20043;-85
2022/02/20 04:09:49;;;;;;;4.85;2.80;;;2.60;99.90;;;;;;5016308;28;20037;-85
2022/02/20 04:12:15;;;;;;;3.85;3.15;;;2.60;99.90;;;;;;5035710;28;20033;-86
2022/02/20 04:14:41;;;;;;;;;;;3.40;99.90;;;;;;5022264;28;20360;-86
2022/02/20 04:17:07;;;;;;;3.83;2.85;;;2.60;99.90;;;;;;5016006;28;19948;-85
2022/02/20 04:19:32;;;;;;;4.10;3.35;;;2.60;99.90;;;;;;5016499;28;20045;-85
2022/02/20 04:21:58;;;;;;;4.20;2.92;;;2.60;99.90;;;;;;5001313;28;20042;-83
2022/02/20 04:24:24;;;;;;;6.10;3.47;;;3.30;99.90;;;;;;5006521;28;20037;-84
2022/02/20 04:26:50;;;;;;;5.75;2.90;;;2.60;99.90;;;;;;5013853;28;20372;-83
2022/02/20 04:29:16;;;;;;;4.05;3.00;;;2.60;99.90;;;;;;5017131;28;20464;-84
2022/02/20 04:31:42;;;;;;;5.18;2.97;;;2.90;99.90;;;;;;5036873;28;20037;-82
2022/02/20 04:34:07;;;;;;;3.95;2.72;;;3.20;99.90;;;;;;5002055;28;20691;-82
2022/02/20 04:36:36;;;;;;;5.53;2.72;;;2.90;99.90;;;;;;5006509;28;20038;-80
2022/02/20 04:39:06;;;;;;;4.45;3.20;;;2.60;99.90;;;;;;5044909;28;20382;-83
2022/02/20 04:41:32;;;;;;;4.57;2.65;;;2.60;99.90;;;;;;5026237;28;20037;-85
2022/02/20 04:43:58;;;;;;;4.45;2.90;;;2.60;99.90;;;;;;5011150;28;20041;-85
2022/02/20 04:46:24;;;;;;;4.13;3.17;;;3.40;99.90;;;;;;5035697;28;20033;-85
2022/02/20 04:48:51;;;;;;;2.92;2.50;;;2.70;99.90;;;;;;5022843;28;20046;-83
2022/02/20 04:51:17;;;;;;;4.05;2.30;;;2.80;99.90;;;;;;5016801;28;20067;-84
2022/02/20 04:53:43;;;;;;;4.55;3.20;;;2.80;99.90;;;;;;5033930;28;20044;-86
2022/02/20 04:56:09;;;;;;;4.43;2.92;;;2.80;99.90;;;;;;5045534;28;20208;-82
2022/02/20 04:58:34;;;;;;;9.25;3.03;;;2.80;99.90;;;;;;5045480;28;20046;-84
2022/02/20 05:01:00;;;;;;;6.20;2.58;;;3.80;99.90;;;;;;5016112;28;20053;-84
2022/02/20 05:03:27;;;;;;;3.72;2.20;;;2.80;99.90;;;;;;5032073;28;20045;-86
2022/02/20 05:05:55;;;;;;;6.15;3.03;;;3.80;99.90;;;;;;5032163;28;20101;-86
2022/02/20 05:08:21;;;;;;;2.50;2.20;;;2.80;99.90;;;;;;5032928;28;20055;-84
2022/02/20 05:10:47;;;;;;;2.60;2.15;;;2.90;99.90;;;;;;5014759;28;20081;-84
2022/02/20 05:13:13;;;;;;;5.28;2.17;;;3.60;99.90;;;;;;5030033;28;20444;-87
2022/02/20 05:15:39;;;;;;;2.47;2.22;;;2.90;99.90;;;;;;5032401;28;20037;-85
2022/02/20 05:18:04;;;;;;;2.85;2.15;;;2.90;99.90;;;;;;5023529;28;20080;-83
2022/02/20 05:20:30;;;;;;;11.73;2.38;;;2.90;99.90;;;;;;5040391;28;20052;-83
2022/02/20 05:22:56;;;;;;;2.67;2.08;;;2.90;99.90;;;;;;5002442;28;20051;-85
2022/02/20 05:25:21;;;;;;;2.83;2.38;;;3.00;99.90;;;;;;5020522;28;20050;-84
2022/02/20 05:27:47;;;;;;;3.60;1.90;;;3.00;99.90;;;;;;5014871;28;20049;-86
2022/02/20 05:30:16;;;;;;;2.97;2.45;;;3.00;99.90;;;;;;5026405;28;20080;-86
2022/02/20 05:32:42;;;;;;;4.25;2.58;;;3.10;99.90;;;;;;5032682;28;20045;-84
2022/02/20 05:35:08;;;;;;;3.72;2.50;;;3.10;99.90;;;;;;5033711;28;20088;-84
2022/02/20 05:37:46;;;;;;;6.78;2.92;;;2.50;99.90;;;;;;5027988;28;20057;-85
2022/02/20 05:40:12;;;;;;;;;;;3.10;99.90;;;;;;5018813;28;20053;-85
2022/02/20 05:42:38;;;;;;;7.68;2.40;;;3.20;99.90;;;;;;5034270;28;19917;-86
2022/02/20 05:45:05;;;;;;;5.65;2.75;;;3.20;99.90;;;;;;5015900;28;20041;-87
2022/02/20 05:47:31;;;;;;;2.97;1.85;;;3.20;99.90;;;;;;5015996;28;20045;-87
2022/02/20 05:49:57;;;;;;;4.90;2.63;;;4.10;99.90;;;;;;5019345;28;20551;-84
2022/02/20 05:52:23;;;;;;;11.32;2.17;;;3.20;99.90;;;;;;5017143;28;20056;-83
2022/02/20 05:54:48;;;;;;;4.25;2.10;;;3.20;99.90;;;;;;5007693;28;20083;-83
2022/02/20 05:57:14;;;;;;;2.20;1.75;;;3.20;99.90;;;;;;5005970;28;20045;-87
2022/02/20 05:59:40;;;;;;;2.88;2.08;;;3.20;99.90;;;;;;5015398;28;20045;-85
2022/02/20 06:02:06;;;;;;;3.17;1.83;;;3.20;99.90;;;;;;4999410;28;20426;-84
2022/02/20 06:04:32;;;;;;;3.00;1.88;;;3.30;99.90;;;;;;5018363;28;20501;-83
2022/02/20 06:06:58;;;;;;;4.70;2.35;;;3.30;99.90;;;;;;5014715;28;20052;-84
2022/02/20 06:09:24;;;;;;;1.88;1.38;;;3.30;99.90;;;;;;5044595;28;20033;-86
2022/02/20 06:11:50;;;;;;;2.67;2.05;;;3.30;99.90;;;;;;5031220;28;20046;-85
2022/02/20 06:14:15;;;;;;;5.45;2.72;;;3.40;99.90;;;;;;5031716;28;20037;-87
2022/02/20 06:16:41;;;;;;;1.55;1.45;;;3.80;99.90;;;;;;5043162;28;20102;-87
2022/02/20 06:19:07;;;;;;;4.47;2.08;;;4.40;99.90;;;;;;4999493;28;20395;-83
2022/02/20 06:21:33;;;;;;;2.50;1.73;;;3.40;99.90;;;;;;5007673;28;20033;-85
2022/02/20 06:23:58;;;;;;;2.72;1.83;;;3.40;99.90;;;;;;4990596;28;20044;-83
2022/02/20 06:26:24;;;;;;;4.72;2.15;;;3.40;99.90;;;;;;5014437;28;20507;-85
2022/02/20 06:28:50;;;;;;;3.65;2.50;;;3.40;99.90;;;;;;5035791;28;20094;-83
2022/02/20 06:31:15;;;;;;;2.47;1.73;;;4.00;99.90;;;;;;5000190;28;20504;-82
2022/02/20 06:33:41;;;;;;;3.00;1.63;;;3.70;99.90;;;;;;5010270;28;20033;-84
2022/02/20 06:36:08;;;;;;;3.22;1.83;;;3.70;99.90;;;;;;5024435;28;20041;-84
2022/02/20 06:38:33;;;;;;;2.13;1.48;;;3.40;99.90;;;;;;5026724;28;20514;-86
2022/02/20 06:40:59;;;;;;;1.38;1.27;;;4.50;99.90;;;;;;5018441;28;20096;-83
2022/02/20 06:43:25;;;;;;;;;;;3.30;99.90;;;;;;4998793;28;20041;-82
2022/02/20 06:45:51;;;;;;;2.10;1.77;;;3.30;99.90;;;;;;5003945;28;20027;-83
2022/02/20 06:48:16;;;;;;;2.53;1.95;;;4.20;99.90;;;;;;5002262;28;20056;-82
2022/02/20 06:50:42;;;;;;;2.40;2.03;;;3.30;99.90;;;;;;4997696;28;20098;-80
2022/02/20 06:53:08;;;;;;;2.70;1.92;;;3.40;99.90;;;;;;5014213;28;20075;-79
2022/02/20 06:55:34;;;;;;;3.50;2.58;;;4.40;99.90;;;;;;5020283;28;20137;-81
2022/02/20 06:58:01;;;;;;;3.85;2.40;;;3.30;99.90;;;;;;5034294;28;20041;-89
2022/02/20 07:00:27;;;;;;;5.55;2.60;;;3.30;99.90;;;;;;4998594;28;20557;-81
2022/02/20 07:02:53;;;;;;;3.92;2.38;;;3.30;99.90;;;;;;5004885;28;20108;-83
2022/02/20 07:05:19;;;;;;;3.85;2.63;;;3.60;99.90;;;;;;5033140;28;20034;-85
2022/02/20 07:07:46;;;;;;;4.93;3.03;;;3.30;99.90;;;;;;4984990;28;20041;-82
2022/02/20 07:10:15;;;;;;;2.97;2.47;;;4.10;99.90;;;;;;5020415;28;20039;-89
2022/02/20 07:12:41;;;;;;;2.65;2.10;;;3.30;99.90;;;;;;5037070;28;20474;-83
2022/02/20 07:15:07;;;;;;;4.00;2.75;;;3.40;99.90;;;;;;5005121;28;20038;-82
2022/02/20 07:17:33;;;;;;;4.00;2.35;;;3.30;99.90;;;;;;5037142;28;20053;-82
2022/02/20 07:20:03;;;;;;;2.42;1.90;;;3.80;99.90;;;;;;5032540;28;20448;-83
2022/02/20 07:22:33;;;;;;;4.75;2.05;;;4.30;99.90;;;;;;5002127;28;20104;-82
2022/02/20 07:24:59;;;;;;;2.75;1.88;;;3.40;99.90;;;;;;5035934;28;20041;-83
2022/02/20 07:27:26;;;;;;;3.20;1.77;;;3.30;99.90;;;;;;5035214;28;20035;-82
2022/02/20 07:29:52;;;;;;;3.72;2.13;;;3.30;99.90;;;;;;5011518;28;20037;-85
2022/02/20 07:32:17;;;;;;;2.22;2.00;;;3.30;99.90;;;;;;5016189;28;20483;-85
2022/02/20 07:34:43;;;;;;;3.72;2.72;;;3.30;99.90;;;;;;5033713;28;20044;-83
2022/02/20 07:37:09;;;;;;;2.53;2.22;;;3.30;99.90;;;;;;5001889;28;20061;-80
2022/02/20 07:39:34;;;;;;;11.50;2.90;;;3.70;99.90;;;;;;5007843;28;20045;-80
2022/02/20 07:42:00;;;;;;;2.90;2.10;;;3.40;99.90;;;;;;4987430;28;20049;-86
2022/02/20 07:44:26;;;;;;;3.08;2.08;;;3.50;99.90;;;;;;5018033;28;20045;-82
2022/02/20 07:46:52;;;;;;;8.75;2.35;;;4.60;99.90;;;;;;5036104;28;20052;-84
2022/02/20 07:49:18;;;;;;;6.82;2.38;;;3.50;99.90;;;;;;5017091;28;20034;-87
2022/02/20 07:51:45;;;;;;;3.65;2.40;;;3.60;99.90;;;;;;5000240;28;20034;-84
2022/02/20 07:54:11;;;;;;;7.15;3.50;;;3.60;99.90;;;;;;4999328;28;20037;-79
2022/02/20 07:56:36;;;;;;;3.97;2.92;;;4.10;99.90;;;;;;5035846;28;20034;-84
2022/02/20 07:59:03;;;;;;;5.07;3.30;;;4.00;99.90;;;;;;5003275;28;20099;-79
2022/02/20 08:01:31;;;;;;;4.32;3.50;;;4.80;99.90;;;;;;5036286;28;20474;-83
2022/02/20 08:03:57;;;;;;;4.57;2.60;;;3.90;99.90;;;;;;4999670;28;20629;-86
2022/02/20 08:06:24;;;;;;;7.65;2.70;;;4.00;99.90;;;;;;4997258;28;20045;-81
2022/02/20 08:08:50;;;;;;;5.10;2.97;;;4.10;99.90;;;;;;5016939;28;20037;-85
2022/02/20 08:11:17;;;;;;;4.40;2.58;;;4.20;99.90;;;;;;5017621;28;20382;-81
2022/02/20 08:13:44;;;;;;;5.05;2.50;;;5.10;99.90;;;;;;5034484;28;20038;-85
2022/02/20 08:16:10;;;;;;;8.85;2.72;;;4.50;99.90;;;;;;5034336;28;20048;-82
2022/02/20 08:18:36;;;;;;;3.97;2.85;;;4.30;99.90;;;;;;5016916;28;20081;-83
2022/02/20 08:21:02;;;;;;;3.50;3.05;;;4.40;99.90;;;;;;5034267;28;20045;-80
2022/02/20 08:23:28;;;;;;;;;;;4.50;99.90;;;;;;5005015;28;20487;-82
2022/02/20 08:25:57;;;;;;;8.40;2.75;;;4.60;99.90;;;;;;5033078;28;19917;-85
2022/02/20 08:28:25;;;;;;;4.10;2.65;;;4.60;99.90;;;;;;5032340;28;20045;-86
2022/02/20 08:30:51;;;;;;;5.75;2.63;;;6.00;99.90;;;;;;5016813;28;20025;-85
2022/02/20 08:33:17;;;;;;;5.53;2.13;;;4.70;99.90;;;;;;5000540;28;20092;-84
2022/02/20 08:35:42;;;;;;;3.58;2.38;;;4.90;99.90;;;;;;5017203;28;20060;-85
2022/02/20 08:38:09;;;;;;;2.83;2.50;;;4.90;99.90;;;;;;5000891;28;20068;-84
2022/02/20 08:40:36;;;;;;;3.45;2.40;;;5.30;99.90;;;;;;5016067;28;20048;-83
2022/02/20 08:43:02;;;;;;;5.57;2.72;;;4.90;99.90;;;;;;5022380;28;20041;-84
2022/02/20 08:45:28;;;;;;;3.38;2.35;;;5.00;99.90;;;;;;5005002;28;20594;-83
2022/02/20 08:47:54;;;;;;;6.93;3.03;;;5.10;99.90;;;;;;5015722;28;20040;-85
2022/02/20 08:50:21;;;;;;;5.18;2.60;;;5.20;99.90;;;;;;4980231;28;20464;-83
2022/02/20 08:52:50;;;;;;;3.65;2.67;;;5.30;99.90;;;;;;4984801;28;20045;-82
2022/02/20 08:55:40;;;;;;;3.25;2.88;;;5.40;99.90;;;;;;4983218;28;20048;-82
2022/02/20 08:58:28;;;;;;;4.68;2.70;;;6.60;99.90;;;;;;4930793;29;20059;-85
2022/02/20 09:04:07;;;;;;;5.57;3.28;;;5.70;99.90;;;;;;4931694;29;20497;-85
2022/02/20 09:06:35;;;;;;;4.57;3.75;;;5.90;99.90;;;;;;4919153;29;20082;-86
2022/02/20 09:09:47;;;;;;;3.90;2.72;;;5.90;99.90;;;;;;4924562;29;20464;-84
2022/02/20 09:12:19;;;;;;;7.25;3.85;;;6.90;99.90;;;;;;4930325;29;20055;-85
2022/02/20 09:14:46;;;;;;;;;;;6.10;99.90;;;;;;4919612;29;20036;-86
2022/02/20 09:17:14;;;;;;;6.40;3.60;;;6.20;99.90;;;;;;4999557;28;19917;-87
2022/02/20 09:19:46;;;;;;;5.38;2.70;;;6.30;99.90;;;;;;5030528;28;20132;-84
2022/02/20 09:22:41;;;;;;;4.22;3.08;;;6.50;99.90;;;;;;5048309;28;20040;-85
2022/02/20 09:25:12;;;;;;;4.18;3.05;;;6.60;99.90;;;;;;5038388;28;20056;-82
2022/02/20 09:27:39;;;;;;;8.93;3.67;;;7.40;99.90;;;;;;5000283;28;20044;-87
2022/02/20 09:30:25;;;;;;;5.28;2.78;;;6.80;99.90;;;;;;5017116;28;20054;-86
2022/02/20 09:32:56;;;;;;;4.75;2.80;;;7.00;99.90;;;;;;5024658;28;20052;-84
2022/02/20 09:35:24;;;;;;;6.03;3.28;;;7.50;99.90;;;;;;5032202;28;20033;-83
2022/02/20 09:37:59;;;;;;;4.32;2.45;;;7.20;99.90;;;;;;5006972;28;20049;-85
2022/02/20 09:40:25;;;;;;;5.57;2.80;;;7.30;99.90;;;;;;5013370;28;20098;-83
2022/02/20 09:42:54;;;;;;;4.55;2.25;;;7.50;99.90;;;;;;5032399;28;20349;-84
2022/02/20 09:45:24;;;;;;;2.45;2.17;;;7.60;99.90;;;;;;5016829;28;20053;-86
2022/02/20 09:48:12;;;;;;;4.63;2.42;;;7.80;99.90;;;;;;5028961;28;20130;-84
2022/02/20 09:50:41;;;;;;;5.95;3.05;;;7.90;99.90;;;;;;5016172;28;20041;-82
2022/02/20 09:53:07;;;;;;;7.55;3.55;;;8.00;99.90;;;;;;4999037;28;20064;-84
2022/02/20 09:55:34;;;;;;;7.97;4.28;;;8.20;99.90;;;;;;5014483;28;20045;-79
2022/02/20 09:58:01;;;;;;;;;;;8.20;99.90;;;;;;4999411;28;20191;-84
2022/02/20 10:00:27;;;;;;;10.05;3.50;;;8.20;99.90;;;;;;5028532;28;19948;-83
2022/02/20 10:03:02;;;;;;;9.10;3.38;;;8.20;99.90;;;;;;5030208;28;20072;-80
2022/02/20 10:05:28;;;;;;;9.23;4.68;;;8.30;99.90;;;;;;5028368;28;20116;-80
2022/02/20 10:07:55;;;;;;;7.07;2.95;;;8.30;99.90;;;;;;5029023;28;20120;-85
2022/02/20 10:10:27;;;;;;;4.60;2.05;;;8.30;99.90;;;;;;4995075;28;20041;-83
2022/02/20 10:13:03;;;;;;;4.93;2.85;;;8.40;99.90;;;;;;5002126;28;20037;-80
2022/02/20 10:15:32;;;;;;;4.03;2.50;;;8.40;99.90;;;;;;5006677;28;20045;-81
2022/02/20 10:18:23;;;;;;;3.58;2.58;;;8.40;99.90;;;;;;5017083;28;20055;-79
2022/02/20 10:21:00;;;;;;;11.07;3.70;;;8.30;99.90;;;;;;5029520;28;20080;-85
2022/02/20 10:23:40;;;;;;;6.50;2.60;;;8.40;99.90;;;;;;5016459;28;20037;-81
2022/02/20 10:26:15;;;;;;;11.32;2.88;;;8.50;99.90;;;;;;4992594;28;20073;-81
2022/02/20 10:29:09;;;;;;;17.38;3.35;;;8.50;99.90;;;;;;5022494;28;20212;-81
2022/02/20 10:31:49;;;;;;;3.45;3.00;;;8.50;99.90;;;;;;5032811;28;20042;-81
2022/02/20 10:34:21;;;;;;;17.70;3.97;;;8.50;99.90;;;;;;5030820;28;20048;-84
2022/02/20 10:36:49;;;;;;;8.35;3.00;;;8.50;99.90;;;;;;5033009;28;20108;-81
2022/02/20 10:39:20;;;;;;;12.30;3.50;;;8.50;99.90;;;;;;5030732;28;20052;-81
2022/02/20 10:41:46;;;;;;;8.23;3.10;;;8.50;99.90;;;;;;5029470;28;20041;-85
2022/02/20 10:44:13;;;;;;;4.40;2.40;;;8.50;99.90;;;;;;5034071;28;20045;-79
2022/02/20 10:46:40;;;;;;;5.40;2.95;;;8.50;99.90;;;;;;5032421;28;20069;-82
2022/02/20 10:49:06;;;;;;;18.25;3.72;;;8.50;99.90;;;;;;5016306;28;20046;-82
2022/02/20 10:51:40;;;;;;;9.63;3.60;;;8.50;99.90;;;;;;5016228;28;20282;-80
2022/02/20 10:54:06;;;;;;;12.88;3.72;;;8.50;99.90;;;;;;5009922;28;20495;-80
2022/02/20 10:56:40;;;;;;;8.85;2.70;;;8.50;99.90;;;;;;5022732;28;20045;-82
2022/02/20 10:59:07;;;;;;;7.78;3.63;;;8.50;99.90;;;;;;5019194;28;20635;-84
2022/02/20 11:01:33;;;;;;;14.30;4.30;;;8.50;99.90;;;;;;5015605;28;20473;-82
2022/02/20 11:04:10;;;;;;;12.65;5.05;;;8.60;99.90;;;;;;5034446;28;20049;-81
2022/02/20 11:06:40;;;;;;;8.25;2.15;;;8.60;99.90;;;;;;5014683;28;20045;-79
2022/02/20 11:09:07;;;;;;;10.40;4.18;;;8.70;99.90;;;;;;5024427;28;20044;-78
2022/02/20 11:11:49;;;;;;;17.38;4.75;;;8.60;99.90;;;;;;5038445;28;20045;-85
2022/02/20 11:14:23;;;;;;;6.93;3.63;;;8.50;99.90;;;;;;5014155;28;20576;-82
2022/02/20 11:16:51;;;;;;;10.15;4.10;;;7.20;99.90;;;;;;5016199;28;20538;-84
2022/02/20 11:19:27;;;;;;;9.82;4.70;;;8.60;99.90;;;;;;5014819;28;20044;-82
2022/02/20 11:22:12;;;;;;;10.27;2.42;;;8.60;99.90;;;;;;5019462;28;20042;-84
2022/02/20 11:24:48;;;;;;;8.07;2.35;;;8.60;99.90;;;;;;5012043;28;20053;-83
2022/02/20 11:27:26;;;;;;;21.88;3.50;;;8.60;99.90;;;;;;5014698;28;20048;-85
2022/02/20 11:30:04;;;;;;;5.18;2.83;;;8.60;99.90;;;;;;5026992;28;20051;-84
2022/02/20 11:32:30;;;;;;;;;;;8.60;99.90;;;;;;5013350;28;20132;-81
2022/02/20 11:35:00;;;;;;;11.75;3.25;;;8.70;99.90;;;;;;4999743;28;20256;-81
2022/02/20 11:37:59;;;;;;;4.50;2.38;;;8.80;99.90;;;;;;5013733;28;20058;-88
2022/02/20 11:40:29;;;;;;;9.55;3.92;;;8.90;99.90;;;;;;5028479;28;20133;-81
2022/02/20 11:43:00;;;;;;;12.45;4.80;;;8.70;99.90;;;;;;5027389;28;20049;-81
2022/02/20 11:45:28;;;;;;;23.33;4.50;;;8.70;99.90;;;;;;5029665;28;20077;-84
2022/02/20 11:48:06;;;;;;;17.45;3.60;;;9.40;99.90;;;;;;5023485;28;20057;-80
2022/02/20 11:50:43;;;;;;;9.10;3.72;;;8.70;99.90;;;;;;5019945;28;20153;-80
2022/02/20 11:53:11;;;;;;;10.32;3.70;;;8.70;99.90;;;;;;5031657;28;20042;-83
2022/02/20 11:55:40;;;;;;;22.45;5.30;;;8.70;99.90;;;;;;5020929;28;20080;-82
2022/02/20 11:58:12;;;;;;;11.25;4.75;;;8.70;99.90;;;;;;5024892;28;20090;-82
2022/02/20 12:01:05;;;;;;;8.23;4.45;;;8.70;99.90;;;;;;5034047;28;20132;-83
2022/02/20 12:03:34;;;;;;;8.38;3.58;;;8.70;99.90;;;;;;5026786;28;20076;-86
2022/02/20 12:06:09;;;;;;;12.52;5.63;;;8.70;99.90;;;;;;5017278;28;20132;-81
2022/02/20 12:08:36;;;;;;;16.10;4.28;;;8.80;99.90;;;;;;5032897;28;20442;-83
2022/02/20 12:11:25;;;;;;;12.20;4.30;;;8.70;99.90;;;;;;5023765;28;20390;-82
2022/02/20 12:14:14;;;;;;;24.42;5.78;;;8.70;99.90;;;;;;5037750;28;20045;-81
2022/02/20 12:16:41;;;;;;;21.17;3.92;;;8.70;99.90;;;;;;5031451;28;20124;-79
2022/02/20 12:19:16;;;;;;;21.50;4.72;;;8.60;99.90;;;;;;5000441;28;20041;-84
2022/02/20 12:21:57;;;;;;;16.10;4.80;;;8.70;99.90;;;;;;5029079;28;20099;-82
2022/02/20 12:24:24;;;;;;;21.10;3.80;;;8.70;99.90;;;;;;5009507;28;20052;-80
2022/02/20 12:26:58;;;;;;;9.02;4.43;;;8.70;99.90;;;;;;5030015;28;20124;-83
2022/02/20 12:29:38;;;;;;;12.68;4.93;;;8.60;99.90;;;;;;5029300;28;20041;-83
2022/02/20 12:32:13;;;;;;;24.10;5.97;;;8.60;99.90;;;;;;5031940;28;20073;-81
2022/02/20 12:35:24;;;;;;;17.55;4.45;;;8.60;99.90;;;;;;5012216;28;20041;-82
2022/02/20 12:37:52;;;;;;;12.55;4.43;;;8.60;99.90;;;;;;4969544;28;20496;-84
2022/02/20 12:40:29;;;;;;;14.85;5.20;;;8.60;99.90;;;;;;4961994;28;20109;-80
2022/02/20 12:43:03;;;;;;;19.90;4.60;;;8.60;99.90;;;;;;4990348;28;20049;-86
2022/02/20 12:45:30;;;;;;;10.77;4.68;;;8.50;99.90;;;;;;5008212;28;20040;-82
2022/02/20 12:47:57;;;;;;;11.10;4.30;;;8.50;99.90;;;;;;5030215;28;20049;-84
2022/02/20 12:50:29;;;;;;;11.93;5.15;;;8.50;99.90;;;;;;5028908;28;20052;-83
2022/02/20 12:52:56;;;;;;;18.35;5.25;;;8.60;99.90;;;;;;5014106;28;20106;-84
2022/02/20 12:55:23;;;;;;;10.00;3.55;;;8.60;99.90;;;;;;5012906;28;20120;-80
2022/02/20 12:57:50;;;;;;;6.80;3.28;;;8.60;99.90;;;;;;5029566;28;20060;-85
2022/02/20 13:00:20;;;;;;;23.30;4.28;;;8.60;99.90;;;;;;5029355;28;20156;-82
2022/02/20 13:02:47;;;;;;;15.50;4.90;;;8.60;99.90;;;;;;5027648;28;20048;-82
2022/02/20 13:05:29;;;;;;;15.88;4.50;;;8.60;99.90;;;;;;5029465;28;20557;-81
2022/02/20 13:07:58;;;;;;;8.15;3.63;;;8.60;99.90;;;;;;5021801;28;20387;-81
2022/02/20 13:10:36;;;;;;;8.73;3.53;;;8.60;99.90;;;;;;5027095;28;20123;-88